createdAt,value
2018-12-17T00:00:15.149Z,100318.69
2018-12-17T00:01:20.406Z,100320.84
2018-12-17T00:02:26.088Z,100323.88
2018-12-17T00:03:31.763Z,100321.20
2018-12-17T00:04:36.722Z,100322.06
2018-12-17T00:05:42.106Z,100315.13
2018-12-17T00:06:47.805Z,100319.45
2018-12-17T00:07:53.452Z,100319.47
2018-12-17T00:08:59.156Z,100318.63
2018-12-17T00:10:04.083Z,100316.02
2018-12-17T00:11:09.498Z,100322.93
2018-12-17T00:12:16.699Z,100323.40
2018-12-17T00:13:20.919Z,100325.47
2018-12-17T00:14:26.573Z,100324.70
2018-12-17T00:15:31.836Z,100315.18
2018-12-17T00:16:37.458Z,100316.92
2018-12-17T00:17:43.138Z,100315.56
2018-12-17T00:18:48.833Z,100312.59
2018-12-17T00:19:54.473Z,100313.49
2018-12-17T00:21:00.137Z,100315.25
2018-12-17T00:22:05.119Z,100319.95
2018-12-17T00:23:10.891Z,100318.65
2018-12-17T00:24:16.513Z,100318.15
2018-12-17T00:25:22.196Z,100314.69
2018-12-17T00:26:27.876Z,100317.63
2018-12-17T00:27:33.606Z,100322.34
2018-12-17T00:28:39.253Z,100321.46
2018-12-17T00:29:44.925Z,100323.16
2018-12-17T00:30:50.543Z,100320.10
2018-12-17T00:31:56.218Z,100324.55
2018-12-17T00:33:01.945Z,100319.42
2018-12-17T00:34:07.652Z,100320.22
2018-12-17T00:35:13.341Z,100317.23
2018-12-17T00:36:18.987Z,100318.52
2018-12-17T00:37:24.648Z,100321.55
2018-12-17T00:38:30.321Z,100317.31
2018-12-17T00:39:35.998Z,100319.40
2018-12-17T00:40:41.703Z,100318.48
2018-12-17T00:41:48.097Z,100320.17
2018-12-17T00:42:53.794Z,100320.22
2018-12-17T00:43:59.461Z,100324.16
2018-12-17T00:45:04.442Z,100331.45
2018-12-17T00:46:09.740Z,100338.41
2018-12-17T00:47:15.433Z,100339.31
2018-12-17T00:48:20.807Z,100338.90
2018-12-17T00:49:26.460Z,100338.45
2018-12-17T00:50:32.151Z,100340.55
2018-12-17T00:51:37.540Z,100338.77
2018-12-17T00:52:43.353Z,100337.47
2018-12-17T00:53:49.109Z,100349.55
2018-12-17T00:54:54.751Z,100348.67
2018-12-17T00:56:00.451Z,100348.22
2018-12-17T00:57:05.822Z,100356.41
2018-12-17T00:58:15.210Z,100357.33
2018-12-17T00:59:17.199Z,100351.31
2018-12-17T01:00:22.854Z,100358.13
2018-12-17T01:01:28.555Z,100349.96
2018-12-17T01:02:34.414Z,100358.13
2018-12-17T01:03:40.068Z,100356.00
2018-12-17T01:04:45.750Z,100358.87
2018-12-17T01:05:51.413Z,100354.16
2018-12-17T01:06:56.723Z,100356.41
2018-12-17T01:08:02.400Z,100358.58
2018-12-17T01:09:08.059Z,100357.26
2018-12-17T01:10:13.486Z,100350.33
2018-12-17T01:11:19.137Z,100351.55
2018-12-17T01:12:24.790Z,100355.45
2018-12-17T01:13:30.430Z,100360.60
2018-12-17T01:14:36.050Z,100365.84
2018-12-17T01:15:41.344Z,100374.12
2018-12-17T01:16:46.958Z,100372.47
2018-12-17T01:17:52.617Z,100372.91
2018-12-17T01:18:58.256Z,100373.29
2018-12-17T01:20:03.235Z,100374.16
2018-12-17T01:21:08.889Z,100377.08
2018-12-17T01:22:14.537Z,100377.47
2018-12-17T01:23:21.848Z,100378.31
2018-12-17T01:24:27.532Z,100379.22
2018-12-17T01:25:33.252Z,100382.16
2018-12-17T01:26:38.922Z,100380.45
2018-12-17T01:27:44.659Z,100379.22
2018-12-17T01:28:50.381Z,100371.12
2018-12-17T01:29:56.077Z,100377.52
2018-12-17T01:31:01.705Z,100376.95
2018-12-17T01:32:07.015Z,100379.55
2018-12-17T01:33:13.563Z,100381.30
2018-12-17T01:34:19.235Z,100382.09
2018-12-17T01:35:24.904Z,100384.28
2018-12-17T01:36:30.549Z,100387.77
2018-12-17T01:37:36.262Z,100388.28
2018-12-17T01:38:41.933Z,100395.66
2018-12-17T01:39:47.230Z,100386.55
2018-12-17T01:40:52.534Z,100387.84
2018-12-17T01:41:58.191Z,100393.02
2018-12-17T01:43:03.514Z,100393.39
2018-12-17T01:44:09.186Z,100391.23
2018-12-17T01:45:14.907Z,100391.19
2018-12-17T01:46:20.559Z,100390.69
2018-12-17T01:47:26.200Z,100390.24
2018-12-17T01:48:31.902Z,100387.67
2018-12-17T01:49:37.555Z,100386.81
2018-12-17T01:50:43.200Z,100389.80
2018-12-17T01:51:48.824Z,100385.02
2018-12-17T01:52:54.551Z,100385.42
2018-12-17T01:54:00.213Z,100379.56
2018-12-17T01:55:05.565Z,100390.82
2018-12-17T01:56:11.269Z,100389.55
2018-12-17T01:57:16.926Z,100391.34
2018-12-17T01:58:29.037Z,100392.17
2018-12-17T01:59:28.312Z,100393.76
2018-12-17T02:00:33.638Z,100389.52
2018-12-17T02:01:39.054Z,100394.23
2018-12-17T02:02:43.657Z,100391.60
2018-12-17T02:03:48.300Z,100393.30
2018-12-17T02:04:53.244Z,100390.80
2018-12-17T02:05:57.862Z,100389.48
2018-12-17T02:07:02.508Z,100393.32
2018-12-17T02:08:06.923Z,100393.39
2018-12-17T02:09:11.513Z,100390.80
2018-12-17T02:10:16.109Z,100398.14
2018-12-17T02:11:20.724Z,100396.48
2018-12-17T02:12:26.036Z,100393.52
2018-12-17T02:13:31.676Z,100393.97
2018-12-17T02:14:37.331Z,100396.53
2018-12-17T02:15:42.991Z,100398.19
2018-12-17T02:16:48.617Z,100395.52
2018-12-17T02:17:54.297Z,100396.46
2018-12-17T02:18:59.978Z,100395.17
2018-12-17T02:20:04.965Z,100393.08
2018-12-17T02:21:10.629Z,100397.35
2018-12-17T02:22:16.260Z,100402.90
2018-12-17T02:23:22.824Z,100403.74
2018-12-17T02:24:28.478Z,100404.94
2018-12-17T02:25:34.093Z,100403.69
2018-12-17T02:26:39.819Z,100398.98
2018-12-17T02:27:45.469Z,100407.20
2018-12-17T02:28:51.120Z,100397.99
2018-12-17T02:29:56.775Z,100404.44
2018-12-17T02:31:03.337Z,100401.45
2018-12-17T02:32:08.306Z,100398.51
2018-12-17T02:33:14.877Z,100404.12
2018-12-17T02:34:21.524Z,100399.31
2018-12-17T02:35:27.227Z,100400.13
2018-12-17T02:36:33.805Z,100406.28
2018-12-17T02:37:39.439Z,100410.27
2018-12-17T02:38:45.142Z,100406.44
2018-12-17T02:39:51.757Z,100406.80
2018-12-17T02:40:58.398Z,100415.02
2018-12-17T02:42:03.739Z,100415.45
2018-12-17T02:43:09.403Z,100411.55
2018-12-17T02:44:14.841Z,100408.05
2018-12-17T02:45:20.485Z,100413.19
2018-12-17T02:46:26.227Z,100410.97
2018-12-17T02:47:31.892Z,100414.82
2018-12-17T02:48:38.088Z,100413.20
2018-12-17T02:49:43.739Z,100408.42
2018-12-17T02:50:49.413Z,100413.55
2018-12-17T02:51:55.105Z,100410.45
2018-12-17T02:53:00.737Z,100410.86
2018-12-17T02:54:06.143Z,100414.34
2018-12-17T02:55:11.793Z,100407.98
2018-12-17T02:56:17.447Z,100410.16
2018-12-17T02:57:23.169Z,100407.20
2018-12-17T02:58:28.488Z,100414.98
2018-12-17T02:59:34.150Z,100419.22
2018-12-17T03:00:39.807Z,100422.98
2018-12-17T03:01:46.470Z,100419.16
2018-12-17T03:02:53.038Z,100414.89
2018-12-17T03:03:58.400Z,100411.45
2018-12-17T03:05:03.740Z,100415.32
2018-12-17T03:06:09.493Z,100416.61
2018-12-17T03:07:15.161Z,100422.14
2018-12-17T03:08:20.808Z,100416.05
2018-12-17T03:09:26.456Z,100422.56
2018-12-17T03:10:32.202Z,100421.66
2018-12-17T03:11:37.891Z,100419.11
2018-12-17T03:12:43.519Z,100421.70
2018-12-17T03:13:49.196Z,100419.18
2018-12-17T03:14:54.869Z,100416.16
2018-12-17T03:16:00.576Z,100423.39
2018-12-17T03:17:06.259Z,100420.88
2018-12-17T03:18:11.908Z,100420.37
2018-12-17T03:19:17.595Z,100421.25
2018-12-17T03:20:23.300Z,100423.77
2018-12-17T03:21:28.967Z,100424.19
2018-12-17T03:22:34.640Z,100423.78
2018-12-17T03:23:40.275Z,100415.14
2018-12-17T03:24:45.950Z,100416.57
2018-12-17T03:25:51.670Z,100416.12
2018-12-17T03:26:57.442Z,100418.70
2018-12-17T03:28:03.412Z,100420.38
2018-12-17T03:29:09.092Z,100420.08
2018-12-17T03:30:14.823Z,100419.61
2018-12-17T03:31:20.499Z,100423.44
2018-12-17T03:32:26.285Z,100424.71
2018-12-17T03:33:32.013Z,100419.60
2018-12-17T03:34:37.732Z,100415.23
2018-12-17T03:35:43.439Z,100412.58
2018-12-17T03:36:49.125Z,100414.38
2018-12-17T03:37:54.795Z,100419.52
2018-12-17T03:39:00.438Z,100416.03
2018-12-17T03:40:05.441Z,100422.17
2018-12-17T03:41:11.169Z,100428.98
2018-12-17T03:42:16.818Z,100426.58
2018-12-17T03:43:22.493Z,100425.66
2018-12-17T03:44:28.138Z,100427.88
2018-12-17T03:45:33.852Z,100432.19
2018-12-17T03:46:39.613Z,100435.21
2018-12-17T03:47:45.326Z,100436.47
2018-12-17T03:48:50.971Z,100438.72
2018-12-17T03:49:56.681Z,100445.23
2018-12-17T03:51:02.448Z,100449.91
2018-12-17T03:52:08.155Z,100445.57
2018-12-17T03:53:13.849Z,100450.27
2018-12-17T03:54:19.801Z,100452.45
2018-12-17T03:55:25.809Z,100458.01
2018-12-17T03:56:31.551Z,100458.03
2018-12-17T03:57:37.232Z,100458.41
2018-12-17T03:58:42.982Z,100461.02
2018-12-17T03:59:48.796Z,100466.67
2018-12-17T04:00:54.575Z,100470.15
2018-12-17T04:02:00.224Z,100467.95
2018-12-17T04:03:05.965Z,100470.89
2018-12-17T04:04:11.709Z,100464.10
2018-12-17T04:05:17.482Z,100470.90
2018-12-17T04:06:23.331Z,100466.17
2018-12-17T04:07:29.229Z,100470.97
2018-12-17T04:08:34.919Z,100474.44
2018-12-17T04:09:40.631Z,100473.53
2018-12-17T04:10:46.329Z,100476.13
2018-12-17T04:11:52.031Z,100470.89
2018-12-17T04:12:57.488Z,100474.42
2018-12-17T04:14:03.180Z,100474.91
2018-12-17T04:15:08.520Z,100476.59
2018-12-17T04:16:14.225Z,100477.48
2018-12-17T04:17:19.909Z,100478.31
2018-12-17T04:18:25.336Z,100477.06
2018-12-17T04:19:31.042Z,100474.51
2018-12-17T04:20:36.777Z,100476.23
2018-12-17T04:21:42.425Z,100474.92
2018-12-17T04:22:48.051Z,100476.56
2018-12-17T04:23:53.722Z,100472.22
2018-12-17T04:24:59.400Z,100473.55
2018-12-17T04:26:04.805Z,100477.48
2018-12-17T04:27:10.527Z,100476.24
2018-12-17T04:28:16.212Z,100481.36
2018-12-17T04:29:21.883Z,100479.62
2018-12-17T04:30:27.595Z,100480.53
2018-12-17T04:31:33.344Z,100483.54
2018-12-17T04:32:39.004Z,100475.33
2018-12-17T04:33:44.883Z,100479.56
2018-12-17T04:34:50.646Z,100480.42
2018-12-17T04:35:56.420Z,100482.19
2018-12-17T04:37:02.165Z,100483.02
2018-12-17T04:38:07.835Z,100482.53
2018-12-17T04:39:13.654Z,100488.56
2018-12-17T04:40:19.345Z,100481.20
2018-12-17T04:41:25.058Z,100482.14
2018-12-17T04:42:30.733Z,100482.09
2018-12-17T04:43:36.385Z,100484.70
2018-12-17T04:44:42.305Z,100480.45
2018-12-17T04:45:48.181Z,100485.26
2018-12-17T04:46:54.353Z,100485.28
2018-12-17T04:48:00.268Z,100485.67
2018-12-17T04:49:06.147Z,100491.25
2018-12-17T04:50:11.644Z,100502.47
2018-12-17T04:51:17.432Z,100496.02
2018-12-17T04:52:23.138Z,100497.73
2018-12-17T04:53:28.808Z,100503.77
2018-12-17T04:54:34.309Z,100504.63
2018-12-17T04:55:39.977Z,100505.08
2018-12-17T04:56:45.771Z,100509.38
2018-12-17T04:57:51.312Z,100502.52
2018-12-17T04:58:56.952Z,100508.53
2018-12-17T05:00:02.288Z,100503.77
2018-12-17T05:01:08.041Z,100512.74
2018-12-17T05:02:13.749Z,100518.34
2018-12-17T05:03:19.447Z,100515.22
2018-12-17T05:04:25.209Z,100521.22
2018-12-17T05:05:30.921Z,100528.55
2018-12-17T05:06:36.727Z,100524.63
2018-12-17T05:07:42.425Z,100522.45
2018-12-17T05:08:48.117Z,100526.77
2018-12-17T05:09:53.854Z,100528.45
2018-12-17T05:11:00.131Z,100529.77
2018-12-17T05:12:07.421Z,100532.02
2018-12-17T05:13:14.708Z,100531.50
2018-12-17T05:14:20.622Z,100539.28
2018-12-17T05:15:26.493Z,100539.66
2018-12-17T05:16:32.680Z,100546.98
2018-12-17T05:17:38.952Z,100548.71
2018-12-17T05:18:44.643Z,100549.29
2018-12-17T05:19:50.370Z,100541.98
2018-12-17T05:20:56.401Z,100549.71
2018-12-17T05:22:03.785Z,100554.52
2018-12-17T05:23:09.501Z,100554.50
2018-12-17T05:24:15.228Z,100556.18
2018-12-17T05:25:20.913Z,100558.76
2018-12-17T05:26:26.649Z,100552.80
2018-12-17T05:27:32.374Z,100560.58
2018-12-17T05:28:38.012Z,100559.70
2018-12-17T05:29:43.303Z,100566.94
2018-12-17T05:30:49.320Z,100565.69
2018-12-17T05:31:55.220Z,100564.33
2018-12-17T05:33:00.656Z,100566.51
2018-12-17T05:34:06.304Z,100564.29
2018-12-17T05:35:12.004Z,100560.34
2018-12-17T05:36:17.709Z,100566.03
2018-12-17T05:37:23.395Z,100574.17
2018-12-17T05:38:28.848Z,100562.98
2018-12-17T05:39:34.634Z,100572.50
2018-12-17T05:40:40.455Z,100572.95
2018-12-17T05:41:46.158Z,100566.92
2018-12-17T05:42:51.860Z,100570.44
2018-12-17T05:43:57.530Z,100569.57
2018-12-17T05:45:03.226Z,100565.70
2018-12-17T05:46:08.925Z,100567.84
2018-12-17T05:47:14.548Z,100578.08
2018-12-17T05:48:20.223Z,100573.33
2018-12-17T05:49:25.888Z,100572.87
2018-12-17T05:50:31.540Z,100573.38
2018-12-17T05:51:37.268Z,100566.44
2018-12-17T05:52:43.005Z,100581.02
2018-12-17T05:53:48.729Z,100575.84
2018-12-17T05:54:54.406Z,100580.14
2018-12-17T05:56:00.106Z,100582.67
2018-12-17T05:57:05.473Z,100586.07
2018-12-17T05:58:11.147Z,100593.91
2018-12-17T05:59:16.826Z,100595.27
2018-12-17T06:00:22.306Z,100597.39
2018-12-17T06:01:28.037Z,100590.45
2018-12-17T06:02:33.789Z,100593.52
2018-12-17T06:03:39.513Z,100598.67
2018-12-17T06:04:45.215Z,100594.41
2018-12-17T06:05:50.592Z,100593.13
2018-12-17T06:06:56.308Z,100599.53
2018-12-17T06:08:01.939Z,100602.98
2018-12-17T06:09:06.684Z,100604.72
2018-12-17T06:10:12.426Z,100603.80
2018-12-17T06:11:18.129Z,100600.41
2018-12-17T06:12:23.804Z,100604.69
2018-12-17T06:13:29.462Z,100602.17
2018-12-17T06:14:35.078Z,100608.97
2018-12-17T06:15:40.757Z,100607.30
2018-12-17T06:16:46.476Z,100600.45
2018-12-17T06:17:52.118Z,100606.00
2018-12-17T06:18:57.837Z,100608.98
2018-12-17T06:20:03.136Z,100609.89
2018-12-17T06:21:08.824Z,100611.20
2018-12-17T06:22:14.478Z,100614.55
2018-12-17T06:23:20.154Z,100615.91
2018-12-17T06:24:26.052Z,100616.72
2018-12-17T06:25:31.424Z,100612.81
2018-12-17T06:26:37.164Z,100614.14
2018-12-17T06:27:42.878Z,100617.58
2018-12-17T06:28:48.185Z,100622.72
2018-12-17T06:29:53.841Z,100623.56
2018-12-17T06:30:59.518Z,100618.83
2018-12-17T06:32:04.838Z,100619.39
2018-12-17T06:33:15.588Z,100621.97
2018-12-17T06:34:16.156Z,100615.51
2018-12-17T06:35:21.812Z,100625.03
2018-12-17T06:36:27.510Z,100622.81
2018-12-17T06:37:33.219Z,100626.20
2018-12-17T06:38:38.877Z,100620.61
2018-12-17T06:39:44.574Z,100629.69
2018-12-17T06:40:50.238Z,100624.05
2018-12-17T06:41:55.967Z,100627.13
2018-12-17T06:43:01.673Z,100633.95
2018-12-17T06:44:07.397Z,100631.83
2018-12-17T06:45:13.053Z,100638.72
2018-12-17T06:46:18.741Z,100635.67
2018-12-17T06:47:24.601Z,100641.38
2018-12-17T06:48:30.283Z,100645.64
2018-12-17T06:49:35.954Z,100648.67
2018-12-17T06:50:41.681Z,100651.27
2018-12-17T06:51:47.178Z,100649.19
2018-12-17T06:52:52.852Z,100645.70
2018-12-17T06:53:58.527Z,100653.02
2018-12-17T06:55:03.804Z,100647.81
2018-12-17T06:56:09.470Z,100652.60
2018-12-17T06:57:15.190Z,100649.19
2018-12-17T06:58:20.622Z,100655.61
2018-12-17T06:59:26.359Z,100658.18
2018-12-17T07:00:32.053Z,100659.89
2018-12-17T07:01:37.693Z,100661.58
2018-12-17T07:02:43.381Z,100656.38
2018-12-17T07:03:49.264Z,100658.97
2018-12-17T07:04:54.963Z,100659.03
2018-12-17T07:06:01.135Z,100661.64
2018-12-17T07:07:06.931Z,100663.36
2018-12-17T07:08:12.418Z,100665.95
2018-12-17T07:09:18.086Z,100664.65
2018-12-17T07:10:23.709Z,100666.31
2018-12-17T07:11:29.409Z,100666.82
2018-12-17T07:12:35.056Z,100671.12
2018-12-17T07:13:40.723Z,100666.36
2018-12-17T07:14:46.337Z,100668.11
2018-12-17T07:15:51.993Z,100675.41
2018-12-17T07:16:57.703Z,100674.53
2018-12-17T07:18:03.437Z,100675.88
2018-12-17T07:19:09.093Z,100677.99
2018-12-17T07:20:14.749Z,100678.44
2018-12-17T07:21:20.455Z,100683.20
2018-12-17T07:22:26.101Z,100682.34
2018-12-17T07:23:31.770Z,100681.47
2018-12-17T07:24:37.444Z,100681.94
2018-12-17T07:25:43.204Z,100683.17
2018-12-17T07:26:48.979Z,100686.64
2018-12-17T07:27:54.664Z,100679.75
2018-12-17T07:29:00.317Z,100682.78
2018-12-17T07:30:06.176Z,100689.61
2018-12-17T07:31:11.885Z,100688.30
2018-12-17T07:32:18.627Z,100691.37
2018-12-17T07:33:23.260Z,100692.72
2018-12-17T07:34:28.677Z,100691.43
2018-12-17T07:35:33.616Z,100692.30
2018-12-17T07:36:39.327Z,100692.28
2018-12-17T07:37:45.051Z,100689.23
2018-12-17T07:38:50.708Z,100690.47
2018-12-17T07:39:56.121Z,100682.35
2018-12-17T07:41:01.754Z,100692.20
2018-12-17T07:42:07.500Z,100686.23
2018-12-17T07:43:13.220Z,100698.73
2018-12-17T07:44:18.875Z,100693.88
2018-12-17T07:45:24.828Z,100696.91
2018-12-17T07:46:30.533Z,100697.78
2018-12-17T07:47:35.952Z,100700.86
2018-12-17T07:48:41.677Z,100700.38
2018-12-17T07:49:47.369Z,100701.63
2018-12-17T07:50:52.714Z,100705.98
2018-12-17T07:51:58.461Z,100708.05
2018-12-17T07:53:04.140Z,100706.27
2018-12-17T07:54:09.853Z,100705.89
2018-12-17T07:55:15.520Z,100702.88
2018-12-17T07:56:21.184Z,100705.42
2018-12-17T07:57:26.882Z,100705.39
2018-12-17T07:58:32.534Z,100706.70
2018-12-17T07:59:38.178Z,100707.13
2018-12-17T08:00:43.796Z,100710.12
2018-12-17T08:01:49.432Z,100708.48
2018-12-17T08:02:55.049Z,100700.38
2018-12-17T08:04:00.690Z,100708.98
2018-12-17T08:05:05.682Z,100703.41
2018-12-17T08:06:11.623Z,100702.86
2018-12-17T08:07:18.024Z,100709.70
2018-12-17T08:08:24.213Z,100705.95
2018-12-17T08:09:31.130Z,100712.81
2018-12-17T08:10:37.520Z,100710.64
2018-12-17T08:11:43.709Z,100712.84
2018-12-17T08:12:49.809Z,100710.14
2018-12-17T08:13:55.746Z,100719.17
2018-12-17T08:15:01.407Z,100719.63
2018-12-17T08:16:07.089Z,100715.28
2018-12-17T08:17:12.789Z,100719.58
2018-12-17T08:18:20.469Z,100716.51
2018-12-17T08:19:26.147Z,100717.77
2018-12-17T08:20:31.865Z,100717.42
2018-12-17T08:21:37.565Z,100719.59
2018-12-17T08:22:43.063Z,100720.00
2018-12-17T08:23:48.713Z,100722.98
2018-12-17T08:24:54.333Z,100729.88
2018-12-17T08:25:59.948Z,100729.10
2018-12-17T08:27:05.651Z,100733.73
2018-12-17T08:28:11.295Z,100733.77
2018-12-17T08:29:16.942Z,100732.03
2018-12-17T08:30:22.563Z,100736.39
2018-12-17T08:31:28.223Z,100737.14
2018-12-17T08:32:33.914Z,100733.66
2018-12-17T08:33:39.582Z,100737.52
2018-12-17T08:34:45.220Z,100739.78
2018-12-17T08:35:50.863Z,100733.22
2018-12-17T08:36:56.521Z,100739.63
2018-12-17T08:38:02.183Z,100738.35
2018-12-17T08:39:07.096Z,100738.03
2018-12-17T08:40:12.734Z,100743.59
2018-12-17T08:41:18.114Z,100742.29
2018-12-17T08:42:23.765Z,100746.65
2018-12-17T08:43:29.401Z,100746.14
2018-12-17T08:44:35.032Z,100746.93
2018-12-17T08:45:40.684Z,100750.39
2018-12-17T08:46:46.350Z,100744.00
2018-12-17T08:47:52.058Z,100749.98
2018-12-17T08:48:57.732Z,100752.11
2018-12-17T08:50:03.481Z,100753.82
2018-12-17T08:51:09.188Z,100752.04
2018-12-17T08:52:14.935Z,100747.41
2018-12-17T08:53:20.835Z,100754.69
2018-12-17T08:54:27.068Z,100750.23
2018-12-17T08:55:33.366Z,100748.48
2018-12-17T08:56:39.710Z,100755.98
2018-12-17T08:57:46.039Z,100755.06
2018-12-17T08:58:52.594Z,100753.02
2018-12-17T08:59:59.153Z,100753.84
2018-12-17T09:01:05.054Z,100750.28
2018-12-17T09:02:11.570Z,100758.05
2018-12-17T09:03:17.733Z,100752.09
2018-12-17T09:04:23.489Z,100752.85
2018-12-17T09:05:29.157Z,100755.06
2018-12-17T09:06:34.821Z,100755.13
2018-12-17T09:07:40.476Z,100753.29
2018-12-17T09:08:45.954Z,100754.02
2018-12-17T09:09:51.596Z,100757.45
2018-12-17T09:10:57.243Z,100760.45
2018-12-17T09:12:02.916Z,100763.06
2018-12-17T09:13:08.630Z,100763.45
2018-12-17T09:14:14.410Z,100765.23
2018-12-17T09:15:20.064Z,100767.37
2018-12-17T09:16:25.690Z,100768.55
2018-12-17T09:17:31.353Z,100774.14
2018-12-17T09:18:37.023Z,100770.28
2018-12-17T09:19:42.665Z,100768.95
2018-12-17T09:20:48.339Z,100772.06
2018-12-17T09:21:54.027Z,100774.17
2018-12-17T09:22:59.705Z,100777.66
2018-12-17T09:24:04.673Z,100785.00
2018-12-17T09:25:09.663Z,100782.75
2018-12-17T09:26:15.332Z,100783.56
2018-12-17T09:27:20.308Z,100786.59
2018-12-17T09:28:25.945Z,100783.09
2018-12-17T09:29:31.589Z,100796.10
2018-12-17T09:30:41.356Z,100795.67
2018-12-17T09:31:42.861Z,100798.35
2018-12-17T09:32:48.528Z,100798.70
2018-12-17T09:33:54.149Z,100797.02
2018-12-17T09:34:59.822Z,100802.19
2018-12-17T09:36:05.468Z,100797.43
2018-12-17T09:37:10.790Z,100803.59
2018-12-17T09:38:16.477Z,100805.19
2018-12-17T09:39:22.152Z,100802.65
2018-12-17T09:40:27.088Z,100805.24
2018-12-17T09:41:32.782Z,100798.60
2018-12-17T09:42:38.687Z,100805.00
2018-12-17T09:43:44.919Z,100801.30
2018-12-17T09:44:51.159Z,100798.72
2018-12-17T09:45:57.469Z,100802.16
2018-12-17T09:47:03.780Z,100797.57
2018-12-17T09:48:10.571Z,100797.52
2018-12-17T09:49:16.920Z,100799.06
2018-12-17T09:50:23.013Z,100799.37
2018-12-17T09:51:29.173Z,100800.34
2018-12-17T09:52:36.462Z,100799.44
2018-12-17T09:53:42.573Z,100799.67
2018-12-17T09:54:48.273Z,100800.03
2018-12-17T09:55:53.954Z,100798.88
2018-12-17T09:56:59.658Z,100798.17
2018-12-17T09:58:05.049Z,100800.34
2018-12-17T09:59:10.669Z,100797.58
2018-12-17T10:00:16.075Z,100802.34
2018-12-17T10:01:21.713Z,100798.52
2018-12-17T10:02:27.339Z,100801.54
2018-12-17T10:03:33.031Z,100801.00
2018-12-17T10:04:38.709Z,100796.68
2018-12-17T10:05:44.384Z,100797.98
2018-12-17T10:06:50.094Z,100797.28
2018-12-17T10:07:55.764Z,100795.91
2018-12-17T10:09:01.419Z,100797.58
2018-12-17T10:10:06.389Z,100792.85
2018-12-17T10:11:12.046Z,100797.55
2018-12-17T10:12:17.707Z,100789.65
2018-12-17T10:13:23.406Z,100794.34
2018-12-17T10:14:29.084Z,100792.89
2018-12-17T10:15:34.752Z,100792.81
2018-12-17T10:16:40.364Z,100792.73
2018-12-17T10:17:45.989Z,100789.61
2018-12-17T10:18:51.608Z,100793.91
2018-12-17T10:19:57.249Z,100793.48
2018-12-17T10:21:02.909Z,100794.42
2018-12-17T10:22:08.553Z,100806.16
2018-12-17T10:23:14.162Z,100798.72
2018-12-17T10:24:19.594Z,100798.67
2018-12-17T10:25:25.286Z,100793.28
2018-12-17T10:26:30.765Z,100792.89
2018-12-17T10:27:36.431Z,100792.02
2018-12-17T10:28:42.101Z,100793.67
2018-12-17T10:29:47.757Z,100800.41
2018-12-17T10:30:53.421Z,100800.67
2018-12-17T10:31:59.082Z,100802.92
2018-12-17T10:33:04.773Z,100797.59
2018-12-17T10:34:10.617Z,100801.84
2018-12-17T10:35:16.614Z,100803.96
2018-12-17T10:36:22.965Z,100805.21
2018-12-17T10:37:29.602Z,100805.95
2018-12-17T10:38:35.803Z,100804.63
2018-12-17T10:39:41.836Z,100809.41
2018-12-17T10:40:47.850Z,100809.59
2018-12-17T10:41:53.495Z,100808.73
2018-12-17T10:42:59.184Z,100806.26
2018-12-17T10:44:04.837Z,100805.69
2018-12-17T10:45:10.110Z,100808.47
2018-12-17T10:46:15.406Z,100807.55
2018-12-17T10:47:21.072Z,100811.45
2018-12-17T10:48:26.694Z,100807.20
2018-12-17T10:49:32.353Z,100803.00
2018-12-17T10:50:37.994Z,100808.90
2018-12-17T10:51:43.688Z,100804.09
2018-12-17T10:52:49.375Z,100803.19
2018-12-17T10:53:55.013Z,100807.56
2018-12-17T10:55:00.666Z,100806.55
2018-12-17T10:56:06.012Z,100797.63
2018-12-17T10:57:11.271Z,100798.23
2018-12-17T10:58:16.944Z,100799.06
2018-12-17T10:59:23.113Z,100807.47
2018-12-17T11:00:39.365Z,100803.05
2018-12-17T11:13:43.619Z,100802.19
2018-12-17T11:14:49.301Z,100805.41
2018-12-17T11:15:54.938Z,100804.16
2018-12-17T11:17:00.592Z,100793.61
2018-12-17T11:18:06.281Z,100795.73
2018-12-17T11:19:11.979Z,100796.93
2018-12-17T11:20:17.486Z,100796.80
2018-12-17T11:21:23.122Z,100790.62
2018-12-17T11:22:28.828Z,100791.95
2018-12-17T11:23:34.537Z,100803.04
2018-12-17T11:24:40.186Z,100802.05
2018-12-17T11:25:45.839Z,100798.95
2018-12-17T11:26:51.489Z,100801.90
2018-12-17T11:27:57.200Z,100804.02
2018-12-17T11:29:02.918Z,100797.66
2018-12-17T11:30:07.933Z,100800.80
2018-12-17T11:31:13.605Z,100799.77
2018-12-17T11:32:19.237Z,100805.25
2018-12-17T11:33:24.914Z,100803.52
2018-12-17T11:34:30.196Z,100815.31
2018-12-17T11:35:35.857Z,100809.64
2018-12-17T11:36:41.515Z,100813.05
2018-12-17T11:37:47.200Z,100797.16
2018-12-17T11:38:52.842Z,100805.91
2018-12-17T11:39:58.494Z,100798.89
2018-12-17T11:41:04.199Z,100802.80
2018-12-17T11:42:09.840Z,100799.32
2018-12-17T11:43:15.505Z,100805.30
2018-12-17T11:44:21.187Z,100797.02
2018-12-17T11:45:26.582Z,100800.75
2018-12-17T11:46:32.214Z,100803.70
2018-12-17T11:47:37.896Z,100792.83
2018-12-17T11:48:43.310Z,100797.67
2018-12-17T11:49:49.043Z,100793.26
2018-12-17T11:50:54.741Z,100789.70
2018-12-17T11:52:01.292Z,100791.78
2018-12-17T11:53:06.105Z,100787.10
2018-12-17T11:54:11.793Z,100786.11
2018-12-17T11:55:17.483Z,100787.58
2018-12-17T11:56:22.493Z,100785.33
2018-12-17T11:57:48.423Z,100784.50
2018-12-17T11:58:53.456Z,100789.84
2018-12-17T11:59:59.708Z,100786.77
2018-12-17T12:01:05.332Z,100786.28
2018-12-17T12:02:11.521Z,100785.50
2018-12-17T12:03:17.821Z,100780.56
2018-12-17T12:04:24.026Z,100791.62
2018-12-17T12:05:30.239Z,100786.59
2018-12-17T12:06:36.462Z,100793.87
2018-12-17T12:07:42.666Z,100799.63
2018-12-17T12:08:48.830Z,100793.43
2018-12-17T12:09:55.085Z,100792.66
2018-12-17T12:11:01.295Z,100800.58
2018-12-17T12:12:07.500Z,100792.13
2018-12-17T12:13:13.721Z,100794.81
2018-12-17T12:14:19.876Z,100797.31
2018-12-17T12:15:26.253Z,100801.99
2018-12-17T12:16:32.578Z,100798.91
2018-12-17T12:17:38.942Z,100805.70
2018-12-17T12:18:44.650Z,100800.16
2018-12-17T12:19:50.243Z,100799.01
2018-12-17T12:20:55.901Z,100802.81
2018-12-17T12:22:01.559Z,100796.84
2018-12-17T12:23:07.296Z,100794.30
2018-12-17T12:24:12.969Z,100797.70
2018-12-17T12:25:18.369Z,100795.41
2018-12-17T12:26:23.681Z,100799.39
2018-12-17T12:27:29.118Z,100796.66
2018-12-17T12:28:34.776Z,100795.48
2018-12-17T12:29:40.417Z,100791.83
2018-12-17T12:30:46.101Z,100797.28
2018-12-17T12:31:51.795Z,100796.70
2018-12-17T12:32:57.468Z,100794.53
2018-12-17T12:34:03.170Z,100795.16
2018-12-17T12:35:07.892Z,100796.41
2018-12-17T12:36:13.174Z,100793.86
2018-12-17T12:37:18.878Z,100795.72
2018-12-17T12:38:24.584Z,100796.54
2018-12-17T12:39:30.248Z,100796.54
2018-12-17T12:40:35.950Z,100793.86
2018-12-17T12:41:41.650Z,100798.23